ENHD Airport Information

Runway Information
Runway 14 Length 6957 ft width 148 ft
Elevation 61 ft Threshold 197 ft Heading 134
Runway 32 Length 6957 ft Width 148 ft
Elevation 86 ft Threshold 197 ft Heading 314
Airport Frequencies
Type ATIS Name ATIS Frequency 118.175 MHZ
Type TWR Name TWR Frequency 120.5 MHZ
Airport Navaids
Type VOR-DME Name Karmoy Frequency 115150 KHZ
Airport Weather Information & NOTAM
ADDS - METARS form results

(1829 UTC 22 September 2018)
Data provider http://aviationweather.gov/metar/data/
 
METAR text: ENHD 221820Z 25028KT 9999 VCSH FEW020TCU BKN030 12/06 Q1002
Conditions at: ENHD (HAUGESUND/KARMOY, NO) observed 1820 UTC 22 September 2018
Temperature: 12.0°C (54°F)
Dewpoint: 6.0°C (43°F) [RH = 67%]
Pressure (altimeter): 29.59 inches Hg (1002.0 mb)
Winds: from the WSW (250 degrees) at 32 MPH (28 knots; 14.4 m/s)
Visibility: 6 or more miles (10+ km)
Ceiling: 3000 feet AGL
Clouds: few clouds at 2000 feet AGL
broken clouds at 3000 feet AGL
Weather: VCSH  (showers in vicinity)

METAR text: ENHD 221750Z 25027KT 9999 -SHRA FEW020TCU BKN030 11/06 Q1002
Conditions at: ENHD (HAUGESUND/KARMOY, NO) observed 1750 UTC 22 September 2018
Temperature: 11.0°C (52°F)
Dewpoint: 6.0°C (43°F) [RH = 71%]
Pressure (altimeter): 29.59 inches Hg (1002.0 mb)
Winds: from the WSW (250 degrees) at 31 MPH (27 knots; 13.9 m/s)
Visibility: 6 or more miles (10+ km)
Ceiling: 3000 feet AGL
Clouds: few clouds at 2000 feet AGL
broken clouds at 3000 feet AGL
Weather: -SHRA  (light rain showers)

Forecast for: ENHD (HAUGESUND/KARMOY, NO)
Text: TAF ENHD 221400Z 2215/2219 28025KT 9999 -SHRA FEW015TCU BKN025
Forecast period: 1500 to 1900 UTC 22 September 2018
Forecast type: FROM: standard forecast or significant change
Winds: from the W (280 degrees) at 29 MPH (25 knots; 12.9 m/s)
Visibility: 6 or more miles 10+ km)
Ceiling: 2500 feet AGL
Clouds: few clouds at 1500 feet AGL
broken clouds at 2500 feet AGL
Weather: -SHRA  (light rain showers)
Text: TEMPO 2215/2219 4000 SHRAGS BKN014CB
Forecast period: 1500 to 1900 UTC 22 September 2018
Forecast type: TEMPORARY: The following changes expected for less than half the time period
Visibility: 2.49 miles (4.01 km)
Ceiling: 1400 feet AGL
Clouds: broken clouds at 1400 feet AGL
Weather: SHRA SHGS  (rain showers, small hail or graupel showers)